createdAt,value
2022-10-04T00:01:40.884Z,4.47
2022-10-04T00:06:53.950Z,4.93
2022-10-04T00:11:57.294Z,6.90
2022-10-04T00:17:00.129Z,7.28
2022-10-04T00:22:07.495Z,4.82
2022-10-04T00:27:27.039Z,4.80
2022-10-04T00:32:40.548Z,5.78
2022-10-04T00:38:14.993Z,5.35
2022-10-04T00:43:31.206Z,6.30
2022-10-04T00:48:41.669Z,5.72
2022-10-04T00:54:05.966Z,5.63
2022-10-04T00:59:22.647Z,6.45
2022-10-04T01:04:39.926Z,4.38
2022-10-04T01:09:53.458Z,8.98
2022-10-04T01:15:30.008Z,6.35
2022-10-04T01:20:48.789Z,7.97
2022-10-04T01:25:51.160Z,6.38
2022-10-04T01:30:53.513Z,8.00
2022-10-04T01:35:55.219Z,7.50
2022-10-04T01:41:03.103Z,5.28
2022-10-04T01:46:11.297Z,8.57
2022-10-04T01:51:30.291Z,9.38
2022-10-04T01:56:43.911Z,7.70
2022-10-04T02:01:52.650Z,4.60
2022-10-04T02:06:57.061Z,7.10
2022-10-04T02:11:59.704Z,7.53
2022-10-04T02:17:05.585Z,6.07
2022-10-04T02:22:10.827Z,6.55
2022-10-04T02:27:13.226Z,5.82
2022-10-04T02:32:33.553Z,7.57
2022-10-04T02:37:38.209Z,6.65
2022-10-04T02:43:03.782Z,10.02
2022-10-04T02:48:31.804Z,6.30
2022-10-04T02:53:52.190Z,6.55
2022-10-04T02:58:54.699Z,8.82
2022-10-04T03:03:58.299Z,5.10
2022-10-04T03:09:03.678Z,9.35
2022-10-04T03:14:10.400Z,5.38
2022-10-04T03:19:15.737Z,9.98
2022-10-04T03:24:25.153Z,8.63
2022-10-04T03:29:32.004Z,6.88
2022-10-04T03:34:37.103Z,3.88
2022-10-04T03:39:43.300Z,3.65
2022-10-04T03:44:46.838Z,7.38
2022-10-04T03:49:51.008Z,6.93
2022-10-04T03:54:55.832Z,5.90
2022-10-04T03:59:59.291Z,4.95
2022-10-04T04:05:11.267Z,6.90
2022-10-04T04:10:27.576Z,7.53
2022-10-04T04:15:32.759Z,6.47
2022-10-04T04:20:36.841Z,8.40
2022-10-04T04:25:42.076Z,8.10
2022-10-04T04:30:51.567Z,8.70
2022-10-04T04:35:56.308Z,9.27
2022-10-04T04:41:08.540Z,8.60
2022-10-04T04:46:26.536Z,7.57
2022-10-04T04:51:31.660Z,7.20
2022-10-04T04:56:34.924Z,4.80
2022-10-04T05:01:48.038Z,8.45
2022-10-04T05:07:17.151Z,5.15
2022-10-04T05:12:23.660Z,7.53
2022-10-04T05:17:29.849Z,6.15
2022-10-04T05:22:32.890Z,7.80
2022-10-04T05:27:40.777Z,4.82
2022-10-04T05:33:04.925Z,6.95
2022-10-04T05:38:10.696Z,9.82
2022-10-04T05:43:26.833Z,5.05
2022-10-04T05:48:28.626Z,9.48
2022-10-04T05:53:31.319Z,5.93
2022-10-04T05:58:48.267Z,9.20
2022-10-04T06:04:16.537Z,6.40
2022-10-04T06:09:18.018Z,5.83
2022-10-04T06:14:44.450Z,10.00
2022-10-04T06:20:20.710Z,6.55
2022-10-04T06:25:38.317Z,6.97
2022-10-04T06:31:07.914Z,10.07
2022-10-04T06:36:34.286Z,11.98
2022-10-04T06:41:49.056Z,7.97
2022-10-04T06:46:58.543Z,4.30
2022-10-04T06:52:23.448Z,8.45
2022-10-04T06:57:37.103Z,10.93
2022-10-04T07:03:03.018Z,10.73
2022-10-04T07:08:34.061Z,6.40
2022-10-04T07:13:56.565Z,8.55
2022-10-04T07:19:19.316Z,6.85
2022-10-04T07:24:27.741Z,7.68
2022-10-04T07:29:39.923Z,11.63
2022-10-04T07:34:46.038Z,8.68
2022-10-04T07:39:52.812Z,6.22
2022-10-04T07:45:21.452Z,5.00
2022-10-04T07:50:30.353Z,7.15
2022-10-04T07:55:55.373Z,5.00
2022-10-04T08:01:15.271Z,9.48
2022-10-04T08:06:26.203Z,7.50
2022-10-04T08:11:41.425Z,6.65
2022-10-04T08:17:17.788Z,4.30
2022-10-04T08:22:26.863Z,4.72
2022-10-04T08:33:26.318Z,5.50
2022-10-04T08:38:48.010Z,6.03
2022-10-04T08:44:05.723Z,6.47
2022-10-04T08:49:39.798Z,4.93
2022-10-04T08:55:11.866Z,6.93
2022-10-04T09:00:32.060Z,7.20
2022-10-04T09:05:45.557Z,4.57
2022-10-04T09:11:31.831Z,4.97
2022-10-04T09:17:01.732Z,5.43
2022-10-04T09:22:17.377Z,6.30
2022-10-04T09:27:55.412Z,3.85
2022-10-04T09:33:00.266Z,4.70
2022-10-04T09:38:29.168Z,7.50
2022-10-04T09:44:00.413Z,7.45
2022-10-04T09:49:13.629Z,7.40
2022-10-04T09:54:33.588Z,5.05
2022-10-04T09:59:43.836Z,5.78
2022-10-04T10:05:11.284Z,8.07
2022-10-04T10:11:04.183Z,4.63
2022-10-04T10:16:29.839Z,4.32
2022-10-04T10:22:02.269Z,5.53
2022-10-04T10:27:31.586Z,5.90
2022-10-04T10:32:39.331Z,5.45
2022-10-04T10:37:49.629Z,4.72
2022-10-04T10:42:59.890Z,4.97
2022-10-04T10:48:29.787Z,5.28
2022-10-04T10:53:59.040Z,3.63
2022-10-04T10:59:33.258Z,5.28
2022-10-04T11:04:56.390Z,6.38
2022-10-04T11:10:32.362Z,2.85
2022-10-04T11:16:11.495Z,2.95
2022-10-04T11:22:07.383Z,4.00
2022-10-04T11:27:28.789Z,4.72
2022-10-04T11:32:45.653Z,3.35
2022-10-04T11:38:04.921Z,3.30
2022-10-04T11:43:17.567Z,5.18
2022-10-04T11:48:22.042Z,2.17
2022-10-04T11:53:55.586Z,2.80
2022-10-04T11:59:17.751Z,2.55
2022-10-04T12:04:41.342Z,3.90
2022-10-04T12:10:03.408Z,4.80
2022-10-04T12:15:32.881Z,2.17
2022-10-04T12:21:12.613Z,3.20
2022-10-04T12:26:32.992Z,4.38
2022-10-04T12:31:36.276Z,3.63
2022-10-04T12:36:53.040Z,1.88
2022-10-04T12:42:09.497Z,4.35
2022-10-04T12:47:29.077Z,4.25
2022-10-04T12:52:43.960Z,4.30
2022-10-04T12:57:58.249Z,3.72
2022-10-04T13:03:22.727Z,2.88
2022-10-04T13:08:37.908Z,2.20
2022-10-04T13:13:42.130Z,3.90
2022-10-04T13:19:10.636Z,2.58
2022-10-04T13:24:55.646Z,3.00
2022-10-04T13:30:13.376Z,2.50
2022-10-04T13:35:23.858Z,7.05
2022-10-04T13:40:54.903Z,3.45
2022-10-04T13:46:20.066Z,3.60
2022-10-04T13:51:28.685Z,3.67
2022-10-04T13:56:57.699Z,3.42
2022-10-04T14:02:41.044Z,2.78
2022-10-04T14:07:57.785Z,2.70
2022-10-04T14:13:27.070Z,2.70
2022-10-04T14:18:40.508Z,2.70
2022-10-04T14:23:44.553Z,3.70
2022-10-04T14:28:59.068Z,3.53
2022-10-04T14:34:37.571Z,4.50
2022-10-04T14:40:08.687Z,2.40
2022-10-04T14:45:35.286Z,4.55
2022-10-04T14:51:16.428Z,3.95
2022-10-04T14:56:43.886Z,4.85
2022-10-04T15:02:00.599Z,3.90
2022-10-04T15:07:16.785Z,4.75
2022-10-04T15:18:46.133Z,7.55
2022-10-04T15:23:54.976Z,4.75
2022-10-04T15:29:25.660Z,5.55
2022-10-04T15:34:35.468Z,5.90
2022-10-04T15:39:47.385Z,11.10
2022-10-04T15:45:15.988Z,6.35
2022-10-04T15:50:32.583Z,6.07
2022-10-04T15:55:38.050Z,4.10
2022-10-04T16:01:05.258Z,3.92
2022-10-04T16:06:21.692Z,4.68
2022-10-04T16:11:32.297Z,4.32
2022-10-04T16:17:09.809Z,7.95
2022-10-04T16:22:19.013Z,5.45
2022-10-04T16:27:46.219Z,3.60
2022-10-04T16:32:56.607Z,4.40
2022-10-04T16:38:14.417Z,9.68
2022-10-04T16:43:15.936Z,9.85
2022-10-04T16:48:23.634Z,7.00
2022-10-04T16:53:59.581Z,7.30
2022-10-04T16:59:10.922Z,8.30
2022-10-04T17:04:38.776Z,6.25
2022-10-04T17:09:48.971Z,6.85
2022-10-04T17:15:21.073Z,7.32
2022-10-04T17:20:25.800Z,6.97
2022-10-04T17:25:53.048Z,11.93
2022-10-04T17:31:08.658Z,12.68
2022-10-04T17:36:33.190Z,14.00
2022-10-04T17:41:43.506Z,17.67
2022-10-04T17:47:23.847Z,21.95
2022-10-04T17:52:52.775Z,33.75
2022-10-04T17:58:02.804Z,30.90
2022-10-04T18:03:12.344Z,44.17
2022-10-04T18:08:33.781Z,24.02
2022-10-04T18:13:49.438Z,22.10
2022-10-04T18:18:51.144Z,25.98
2022-10-04T18:24:16.998Z,18.38
2022-10-04T18:29:37.133Z,23.95
2022-10-04T18:34:38.817Z,24.40
2022-10-04T18:39:55.403Z,26.58
2022-10-04T18:45:05.430Z,23.15
2022-10-04T18:50:20.882Z,27.75
2022-10-04T18:56:13.172Z,31.33
2022-10-04T19:01:57.646Z,25.30
2022-10-04T19:07:30.343Z,27.45
2022-10-04T19:12:41.133Z,27.45
2022-10-04T19:18:00.839Z,35.40
2022-10-04T19:23:33.301Z,37.63
2022-10-04T19:28:37.679Z,30.58
2022-10-04T19:33:53.668Z,27.02
2022-10-04T19:39:22.927Z,23.92
2022-10-04T19:45:01.884Z,24.33
2022-10-04T19:50:10.421Z,24.13
2022-10-04T19:55:42.820Z,21.13
2022-10-04T20:00:44.642Z,24.55
2022-10-04T20:05:48.711Z,25.08
2022-10-04T20:10:50.297Z,30.63
2022-10-04T20:16:00.597Z,31.60
2022-10-04T20:21:09.708Z,24.73
2022-10-04T20:26:53.767Z,36.10
2022-10-04T20:31:56.308Z,53.13
2022-10-04T20:36:57.899Z,29.48
2022-10-04T20:42:29.896Z,26.33
2022-10-04T20:47:43.961Z,23.58
2022-10-04T20:52:48.498Z,23.20
2022-10-04T20:57:50.072Z,22.67
2022-10-04T21:03:08.314Z,29.42
2022-10-04T21:08:14.845Z,22.53
2022-10-04T21:13:42.286Z,24.50
2022-10-04T21:18:43.828Z,22.10
2022-10-04T21:23:45.357Z,21.63
2022-10-04T21:28:48.308Z,20.15
2022-10-04T21:33:49.980Z,23.85
2022-10-04T21:38:54.242Z,24.00
2022-10-04T21:43:55.832Z,21.40
2022-10-04T21:48:57.376Z,22.88
2022-10-04T21:53:59.462Z,23.67
2022-10-04T21:59:01.126Z,20.75
2022-10-04T22:04:02.901Z,23.65
2022-10-04T22:09:05.257Z,20.60
2022-10-04T22:14:06.788Z,19.75
2022-10-04T22:19:08.348Z,22.77
2022-10-04T22:24:17.507Z,21.30
2022-10-04T22:34:22.887Z,24.08
2022-10-04T22:39:25.078Z,27.25
2022-10-04T22:44:34.535Z,21.33
2022-10-04T22:49:38.804Z,22.38
2022-10-04T22:54:44.597Z,17.35
2022-10-04T22:59:51.469Z,19.85
2022-10-04T23:05:09.849Z,20.42
2022-10-04T23:10:13.993Z,18.90
2022-10-04T23:15:17.918Z,24.05
2022-10-04T23:20:20.584Z,22.83
2022-10-04T23:25:29.154Z,24.92
2022-10-04T23:30:30.981Z,21.67
2022-10-04T23:35:34.105Z,18.23
2022-10-04T23:40:35.699Z,19.70
2022-10-04T23:45:42.051Z,19.85
2022-10-04T23:50:43.877Z,18.92
2022-10-04T23:55:46.151Z,15.38
